Time;durP1;ratioP1;P1;durP2;ratioP2;P2;SDS_P1;SDS_P2;PMS_P1;PMS_P2;Temp;Humidity;BMP_temperature;BMP_pressure;BME280_temperature;BME280_humidity;BME280_pressure;Samples;Min_cycle;Max_cycle;Signal;HPM_P1;HPM_P2
2023/02/04 00:00:49;;;;;;;15.48;3.35;;;;;;;4.14;88.21;99834.81;5033163;28;20056;-81
2023/02/04 00:03:15;;;;;;;11.55;4.68;;;;;;;4.13;87.84;99833.19;5013390;28;20474;-82
2023/02/04 00:05:41;;;;;;;28.40;4.95;;;;;;;4.22;88.24;99846.13;5022202;28;20037;-82
2023/02/04 00:08:07;;;;;;;18.30;3.38;;;;;;;4.13;88.33;99844.56;5028209;28;20122;-82
2023/02/04 00:10:32;;;;;;;27.65;4.20;;;;;;;4.18;88.08;99836.91;5009919;28;20076;-81
2023/02/04 00:12:58;;;;;;;16.20;3.00;;;;;;;4.19;88.14;99853.59;5032082;28;20076;-82
2023/02/04 00:15:23;;;;;;;18.40;3.45;;;;;;;4.04;89.00;99843.00;5030789;28;20033;-82
2023/02/04 00:17:49;;;;;;;10.68;4.25;;;;;;;4.02;88.33;99831.81;5030009;28;20036;-82
2023/02/04 00:20:14;;;;;;;14.65;3.60;;;;;;;4.02;88.17;99820.44;5014363;28;20036;-82
2023/02/04 00:22:40;;;;;;;19.10;4.63;;;;;;;3.96;89.06;99840.47;5013133;28;20255;-83
2023/02/04 00:25:06;;;;;;;19.77;4.93;;;;;;;3.97;89.16;99834.19;5028423;28;20021;-83
2023/02/04 00:27:31;;;;;;;16.35;3.83;;;;;;;3.70;88.42;99840.06;5009245;28;20486;-82
2023/02/04 00:29:57;;;;;;;23.08;5.70;;;;;;;3.77;88.36;99852.41;5023531;28;20112;-83
2023/02/04 00:32:23;;;;;;;23.05;5.13;;;;;;;3.68;88.70;99847.38;5010617;28;20025;-83
2023/02/04 00:34:48;;;;;;;21.77;4.10;;;;;;;3.80;88.61;99862.56;5012202;28;20033;-82
2023/02/04 00:37:13;;;;;;;17.67;3.05;;;;;;;3.89;88.30;99876.50;5027670;28;20381;-81
2023/02/04 00:39:39;;;;;;;24.23;4.28;;;;;;;3.92;88.29;99877.97;5031832;28;20366;-81
2023/02/04 00:42:05;;;;;;;22.55;5.05;;;;;;;3.98;87.73;99872.78;5025346;28;20034;-83
2023/02/04 00:44:30;;;;;;;16.98;4.57;;;;;;;3.98;88.05;99886.00;5026091;28;20029;-83
2023/02/04 00:46:56;;;;;;;14.95;3.67;;;;;;;3.92;87.41;99873.53;5012833;28;20025;-81
2023/02/04 00:49:21;;;;;;;22.90;4.00;;;;;;;3.81;87.78;99881.88;5028805;28;20049;-82
2023/02/04 00:51:47;;;;;;;27.83;5.70;;;;;;;3.89;88.12;99894.22;5028623;28;20367;-81
2023/02/04 00:54:16;;;;;;;23.02;4.93;;;;;;;4.07;87.93;99900.78;5030267;28;20116;-82
2023/02/04 00:56:42;;;;;;;20.58;4.45;;;;;;;3.97;87.09;99904.69;5008586;28;20087;-81
2023/02/04 00:59:08;;;;;;;15.93;4.05;;;;;;;4.16;87.58;99904.16;5033676;28;20053;-81
2023/02/04 01:01:34;;;;;;;29.83;3.90;;;;;;;4.01;87.56;99896.22;5028031;28;20438;-81
2023/02/04 01:03:59;;;;;;;20.38;3.83;;;;;;;4.02;87.83;99900.47;5017513;28;20047;-83
2023/02/04 01:06:25;;;;;;;17.25;4.40;;;;;;;3.90;87.21;99901.94;4995972;28;20028;-83
2023/02/04 01:08:50;;;;;;;20.95;6.28;;;;;;;4.05;87.56;99904.59;5024060;28;20103;-81
2023/02/04 01:11:17;;;;;;;25.70;5.32;;;;;;;3.98;87.90;99904.50;5014038;28;20037;-81
2023/02/04 01:13:42;;;;;;;19.67;4.85;;;;;;;4.12;87.94;99913.44;5027477;28;20044;-81
2023/02/04 01:16:08;;;;;;;34.00;5.13;;;;;;;4.06;87.74;99922.91;5011806;28;20026;-81
2023/02/04 01:18:33;;;;;;;14.60;3.75;;;;;;;4.13;88.28;99950.22;5025095;28;20072;-81
2023/02/04 01:20:58;;;;;;;24.67;4.65;;;;;;;4.06;87.59;99954.63;5026131;28;20029;-81
2023/02/04 01:23:24;;;;;;;18.90;4.75;;;;;;;4.00;88.01;99976.44;4996144;28;20038;-82
2023/02/04 01:25:49;;;;;;;32.28;5.05;;;;;;;3.82;88.82;99983.88;5033294;28;20043;-82
2023/02/04 01:28:14;;;;;;;24.58;4.90;;;;;;;3.77;88.87;99976.50;5027254;28;20025;-82
2023/02/04 01:30:40;;;;;;;25.48;5.10;;;;;;;3.90;89.76;99985.63;5011178;28;20041;-82
2023/02/04 01:33:05;;;;;;;32.67;5.63;;;;;;;3.91;89.84;99990.72;5026694;28;20674;-82
2023/02/04 01:35:30;;;;;;;22.88;5.45;;;;;;;3.86;89.28;99979.88;5030493;28;20116;-83
2023/02/04 01:37:56;;;;;;;26.83;5.03;;;;;;;3.87;90.90;100009.75;5014026;28;20025;-82
2023/02/04 01:40:21;;;;;;;22.45;4.47;;;;;;;3.88;90.34;99995.53;5030322;28;20037;-82
2023/02/04 01:42:47;;;;;;;17.48;4.38;;;;;;;3.70;91.61;100012.50;5008815;28;20032;-83
2023/02/04 01:45:12;;;;;;;36.33;5.35;;;;;;;3.31;92.84;100011.75;4993881;28;20499;-84
2023/02/04 01:47:38;;;;;;;18.02;4.00;;;;;;;3.17;93.87;100027.50;5010383;28;20038;-83
2023/02/04 01:50:05;;;;;;;15.68;3.55;;;;;;;3.18;93.65;100019.41;5029790;28;20041;-84
2023/02/04 01:52:37;;;;;;;25.95;3.35;;;;;;;2.99;94.49;100039.09;5012282;28;20041;-83
2023/02/04 01:55:05;;;;;;;17.35;3.80;;;;;;;3.40;93.97;100036.28;5010411;28;20075;-83
2023/02/04 01:57:31;;;;;;;10.15;3.53;;;;;;;3.67;92.66;100047.16;5008366;28;20030;-82
2023/02/04 01:59:57;;;;;;;21.55;4.50;;;;;;;3.90;91.10;100018.13;5024606;28;20034;-83
2023/02/04 02:02:46;;;;;;;13.68;3.83;;;;;;;3.90;90.98;100043.72;5032244;28;20035;-83
2023/02/04 02:05:15;;;;;;;27.20;4.22;;;;;;;3.71;90.89;100052.94;5030874;28;20064;-82
2023/02/04 02:07:41;;;;;;;18.98;3.38;;;;;;;3.88;91.17;100051.81;5018066;28;20033;-82
2023/02/04 02:10:10;;;;;;;18.77;3.15;;;;;;;3.86;89.99;100037.97;5033475;28;20060;-82
2023/02/04 02:12:36;;;;;;;18.17;5.28;;;;;;;3.95;90.85;100036.94;5016540;28;20029;-83
2023/02/04 02:15:01;;;;;;;19.40;4.38;;;;;;;4.07;89.67;100067.19;5032142;28;20059;-83
2023/02/04 02:17:27;;;;;;;20.90;5.13;;;;;;;4.06;89.46;100067.38;5026532;28;20025;-82
2023/02/04 02:19:52;;;;;;;19.55;4.65;;;;;;;3.97;90.06;100063.16;5031291;28;20557;-82
2023/02/04 02:22:27;;;;;;;16.55;3.88;;;;;;;4.15;89.77;100071.59;5015300;28;20025;-82
2023/02/04 02:24:52;;;;;;;17.65;4.55;;;;;;;3.99;89.36;100064.63;5013216;28;20145;-82
2023/02/04 02:27:18;;;;;;;16.15;3.80;;;;;;;4.10;89.16;100077.41;4997442;28;20025;-82
2023/02/04 02:29:43;;;;;;;17.50;5.25;;;;;;;3.79;90.09;100080.09;5015764;28;20033;-81
2023/02/04 02:32:11;;;;;;;20.08;4.07;;;;;;;3.77;89.56;100097.94;5012864;28;20108;-82
2023/02/04 02:34:38;;;;;;;21.85;4.00;;;;;;;3.92;89.47;100094.53;5014710;28;20116;-82
2023/02/04 02:37:05;;;;;;;18.73;5.05;;;;;;;4.08;88.61;100097.06;5015134;28;20032;-83
2023/02/04 02:39:31;;;;;;;17.65;3.55;;;;;;;3.76;89.36;100106.84;5013522;28;20033;-82
2023/02/04 02:41:57;;;;;;;29.90;4.80;;;;;;;3.53;89.36;100115.72;5028507;28;20044;-83
2023/02/04 02:44:25;;;;;;;25.40;4.60;;;;;;;3.37;90.62;100115.78;5013494;28;20040;-83
2023/02/04 02:46:51;;;;;;;17.63;4.80;;;;;;;3.85;89.94;100106.78;5030468;28;20040;-82
2023/02/04 02:49:18;;;;;;;20.80;4.82;;;;;;;3.19;89.31;100096.75;5014184;28;20033;-83
2023/02/04 02:51:44;;;;;;;25.38;5.95;;;;;;;2.97;91.21;100114.13;5007569;28;20128;-82
2023/02/04 02:54:24;;;;;;;24.02;5.13;;;;;;;3.21;91.85;100115.84;5025988;28;20470;-82
2023/02/04 02:56:51;;;;;;;22.98;5.43;;;;;;;3.66;90.69;100123.91;5022450;28;20512;-81
2023/02/04 02:59:17;;;;;;;24.63;5.10;;;;;;;3.03;93.08;100135.38;5021032;28;20042;-81
2023/02/04 03:01:44;;;;;;;23.80;5.63;;;;;;;2.95;91.94;100135.38;5031174;28;20381;-81
2023/02/04 03:04:11;;;;;;;25.65;5.05;;;;;;;2.75;91.88;100136.72;5032485;28;20029;-81
2023/02/04 03:06:37;;;;;;;20.27;4.70;;;;;;;2.34;92.89;100153.53;5012220;28;20034;-81
2023/02/04 03:09:02;;;;;;;22.08;4.60;;;;;;;2.67;94.16;100164.88;5028171;28;20045;-81
2023/02/04 03:11:31;;;;;;;15.10;4.07;;;;;;;2.92;92.97;100151.53;5031089;28;20048;-81
2023/02/04 03:13:59;;;;;;;19.40;3.85;;;;;;;2.60;92.12;100158.66;5010675;28;20485;-82
2023/02/04 03:16:26;;;;;;;24.58;3.75;;;;;;;2.84;92.57;100162.06;5030585;28;20504;-81
2023/02/04 03:18:51;;;;;;;20.33;4.35;;;;;;;2.46;92.80;100178.56;5027226;28;20116;-81
2023/02/04 03:21:17;;;;;;;14.30;4.97;;;;;;;2.96;93.47;100181.03;5025760;28;20044;-81
2023/02/04 03:23:42;;;;;;;25.55;4.18;;;;;;;2.79;92.79;100176.75;5029477;28;20037;-81
2023/02/04 03:26:08;;;;;;;21.90;3.85;;;;;;;3.06;93.19;100199.31;5030190;28;20040;-82
2023/02/04 03:28:39;;;;;;;21.65;4.78;;;;;;;2.71;91.67;100205.75;5030203;28;20124;-81
2023/02/04 03:31:04;;;;;;;15.25;4.00;;;;;;;2.91;92.27;100201.78;5029288;28;20505;-82
2023/02/04 03:33:30;;;;;;;12.57;3.65;;;;;;;2.43;91.62;100210.50;5016911;28;20069;-82
2023/02/04 03:35:56;;;;;;;12.40;3.55;;;;;;;2.57;92.53;100212.50;5030999;28;20040;-82
2023/02/04 03:38:22;;;;;;;17.33;3.83;;;;;;;2.48;92.45;100202.13;5010239;28;20025;-81
2023/02/04 03:40:47;;;;;;;21.90;4.28;;;;;;;2.34;92.32;100232.53;5023795;28;20021;-81
2023/02/04 03:43:12;;;;;;;12.27;2.80;;;;;;;2.58;93.20;100234.41;5027895;28;20127;-81
2023/02/04 03:45:38;;;;;;;18.48;4.25;;;;;;;2.48;92.71;100233.72;4979051;28;20037;-82
2023/02/04 03:48:03;;;;;;;16.15;3.50;;;;;;;2.65;91.96;100240.66;5023783;28;20120;-82
2023/02/04 03:50:28;;;;;;;19.30;4.65;;;;;;;2.42;92.05;100239.66;5033205;28;20045;-81
2023/02/04 03:52:54;;;;;;;14.05;3.97;;;;;;;2.38;92.46;100230.44;5011376;28;20099;-81
2023/02/04 03:55:20;;;;;;;11.68;3.15;;;;;;;2.50;92.70;100226.47;4998673;28;20059;-81
2023/02/04 03:57:45;;;;;;;9.52;3.40;;;;;;;2.44;92.04;100241.16;5020682;28;20033;-81
2023/02/04 04:00:12;;;;;;;15.93;3.72;;;;;;;2.46;91.64;100243.59;5013722;28;20037;-81
2023/02/04 04:02:38;;;;;;;18.23;3.47;;;;;;;2.22;92.05;100254.91;5022912;28;20025;-81
2023/02/04 04:05:04;;;;;;;7.28;3.00;;;;;;;2.15;92.71;100272.34;5027131;28;20033;-80
2023/02/04 04:07:30;;;;;;;6.72;2.10;;;;;;;1.65;93.76;100268.84;5030748;28;20024;-80
2023/02/04 04:09:55;;;;;;;6.28;1.70;;;;;;;1.21;94.60;100283.84;5014152;28;20159;-81
2023/02/04 04:12:20;;;;;;;3.50;1.10;;;;;;;1.08;95.30;100304.44;4996061;28;20092;-82
2023/02/04 04:14:46;;;;;;;3.47;1.30;;;;;;;0.99;95.93;100295.66;5006481;28;20466;-82
2023/02/04 04:17:11;;;;;;;1.30;0.88;;;;;;;1.24;95.03;100304.59;5029957;28;20072;-82
2023/02/04 04:19:37;;;;;;;2.85;1.20;;;;;;;1.16;95.24;100328.16;5012101;28;20033;-82
2023/02/04 04:22:02;;;;;;;1.27;1.00;;;;;;;1.51;96.16;100328.94;5029079;28;20087;-82
2023/02/04 04:24:27;;;;;;;2.80;1.92;;;;;;;1.82;95.37;100281.91;5011663;28;20523;-82
2023/02/04 04:26:53;;;;;;;1.85;1.45;;;;;;;1.86;93.57;100335.91;5027309;28;20232;-82
2023/02/04 04:29:18;;;;;;;7.93;2.35;;;;;;;1.60;93.29;100331.63;5013509;28;20485;-82
2023/02/04 04:31:44;;;;;;;1.95;1.75;;;;;;;1.70;94.95;100337.63;5013392;28;20030;-82
2023/02/04 04:34:13;;;;;;;2.92;1.77;;;;;;;1.05;94.14;100331.84;5020407;28;20030;-82
2023/02/04 04:36:39;;;;;;;1.70;1.50;;;;;;;1.03;94.33;100336.44;5027701;28;20025;-82
2023/02/04 04:39:04;;;;;;;2.50;1.48;;;;;;;0.99;95.79;100353.50;5012137;28;20044;-81
2023/02/04 04:41:30;;;;;;;3.17;1.85;;;;;;;0.74;96.12;100346.38;5011996;28;20037;-82
2023/02/04 04:43:55;;;;;;;2.38;1.83;;;;;;;0.98;96.02;100354.50;5027101;28;20532;-82
2023/02/04 04:46:21;;;;;;;4.82;2.40;;;;;;;0.85;95.82;100371.59;4998881;28;20591;-82
2023/02/04 04:48:47;;;;;;;2.60;2.40;;;;;;;1.23;96.86;100380.00;5008158;28;20033;-82
2023/02/04 04:51:12;;;;;;;4.18;2.78;;;;;;;0.97;94.38;100363.34;4996511;28;20044;-82
2023/02/04 04:53:38;;;;;;;6.53;2.47;;;;;;;1.33;94.92;100374.69;5007272;28;20139;-83
2023/02/04 04:56:03;;;;;;;3.67;3.05;;;;;;;1.03;95.08;100382.94;4995649;28;20067;-83
2023/02/04 04:58:28;;;;;;;3.75;2.33;;;;;;;0.85;95.08;100387.38;5008172;28;20060;-83
2023/02/04 05:00:54;;;;;;;5.57;2.80;;;;;;;1.81;95.04;100405.78;5029659;28;20390;-83
2023/02/04 05:03:19;;;;;;;4.90;3.45;;;;;;;1.88;93.74;100394.47;5009051;28;20041;-82
2023/02/04 05:05:44;;;;;;;4.13;3.15;;;;;;;1.12;93.78;100411.78;5010605;28;20032;-81
2023/02/04 05:08:12;;;;;;;3.58;2.42;;;;;;;1.02;93.87;100400.53;5025061;28;20063;-81
2023/02/04 05:10:40;;;;;;;6.15;3.72;;;;;;;0.81;94.73;100409.66;4997867;28;20056;-82
2023/02/04 05:13:06;;;;;;;3.35;3.05;;;;;;;1.57;95.52;100414.34;5027150;28;20057;-82
2023/02/04 05:15:32;;;;;;;8.93;3.45;;;;;;;2.13;94.20;100413.88;5027765;28;20064;-82
2023/02/04 05:17:57;;;;;;;3.97;2.60;;;;;;;1.96;92.30;100401.59;5025300;28;20022;-82
2023/02/04 05:20:23;;;;;;;3.55;3.00;;;;;;;2.00;93.07;100411.69;5008936;28;20037;-82
2023/02/04 05:22:49;;;;;;;4.97;2.95;;;;;;;2.86;91.42;100425.59;5010400;28;20030;-82
2023/02/04 05:25:15;;;;;;;6.55;2.88;;;;;;;2.75;90.75;100410.84;5023627;28;20049;-82
2023/02/04 05:27:41;;;;;;;5.30;3.15;;;;;;;2.84;89.63;100411.75;5009774;28;20029;-82
2023/02/04 05:30:10;;;;;;;6.68;2.72;;;;;;;1.93;90.18;100417.69;5028840;28;20436;-82
2023/02/04 05:32:36;;;;;;;3.58;2.95;;;;;;;2.10;91.28;100424.72;5023969;28;20685;-82
2023/02/04 05:35:02;;;;;;;3.53;2.97;;;;;;;2.79;89.91;100427.19;5018293;28;20034;-83
2023/02/04 05:37:27;;;;;;;5.10;3.03;;;;;;;1.98;89.59;100437.34;5010900;28;20026;-81
2023/02/04 05:39:52;;;;;;;5.25;2.47;;;;;;;2.51;91.92;100433.69;5012534;28;20057;-83
2023/02/04 05:42:18;;;;;;;3.80;2.97;;;;;;;3.10;90.31;100436.19;5024023;28;20607;-82
2023/02/04 05:44:43;;;;;;;6.10;3.00;;;;;;;3.54;88.63;100455.19;5008783;28;20095;-82
2023/02/04 05:47:08;;;;;;;4.70;2.95;;;;;;;3.66;87.31;100460.00;5026166;28;20529;-82
2023/02/04 05:49:34;;;;;;;7.35;3.17;;;;;;;3.54;87.51;100461.31;5029317;28;20057;-82
2023/02/04 05:51:59;;;;;;;6.07;3.78;;;;;;;3.58;87.84;100469.75;5028028;28;20126;-82
2023/02/04 05:54:25;;;;;;;4.55;4.03;;;;;;;3.50;86.71;100465.28;5022056;28;20033;-83
2023/02/04 05:56:50;;;;;;;6.05;3.78;;;;;;;3.53;86.89;100469.41;5026250;28;20543;-82
2023/02/04 05:59:16;;;;;;;6.57;3.35;;;;;;;3.20;87.75;100472.97;5027986;28;20040;-82
2023/02/04 06:01:43;;;;;;;4.53;3.33;;;;;;;2.36;87.64;100474.78;5027382;28;20555;-82
2023/02/04 06:04:08;;;;;;;5.35;3.47;;;;;;;2.10;89.31;100472.97;5025196;28;20029;-82
2023/02/04 06:06:34;;;;;;;8.07;3.15;;;;;;;1.02;91.34;100471.50;5003639;28;20049;-83
2023/02/04 06:08:59;;;;;;;6.53;3.97;;;;;;;1.15;92.10;100466.72;5025622;28;20033;-82
2023/02/04 06:11:24;;;;;;;5.35;3.42;;;;;;;1.41;91.25;100464.16;5011079;28;20036;-82
2023/02/04 06:13:50;;;;;;;8.85;3.78;;;;;;;2.84;91.94;100459.19;4990836;28;20037;-82
2023/02/04 06:16:15;;;;;;;4.93;3.78;;;;;;;2.81;89.41;100475.31;5027399;28;20030;-83
2023/02/04 06:18:40;;;;;;;3.55;3.25;;;;;;;3.25;88.37;100481.22;5008725;28;20712;-83
2023/02/04 06:21:06;;;;;;;4.22;3.33;;;;;;;3.37;87.29;100482.56;4990438;28;20217;-83
2023/02/04 06:23:33;;;;;;;4.55;3.00;;;;;;;3.46;86.33;100495.63;4994526;28;20091;-83
2023/02/04 06:26:02;;;;;;;5.65;3.40;;;;;;;3.46;86.50;100498.25;5029098;28;20029;-83
2023/02/04 06:28:27;;;;;;;3.88;3.15;;;;;;;3.55;86.24;100491.19;5027695;28;20034;-83
2023/02/04 06:30:52;;;;;;;5.47;3.80;;;;;;;3.20;86.01;100492.25;5008249;28;20040;-83
2023/02/04 06:33:18;;;;;;;5.20;3.88;;;;;;;3.45;85.92;100488.69;5011948;28;20056;-83
2023/02/04 06:35:43;;;;;;;4.32;3.85;;;;;;;3.59;85.38;100506.53;5010732;28;20037;-83
2023/02/04 06:38:08;;;;;;;6.07;3.92;;;;;;;3.62;85.28;100519.41;5029845;28;20030;-82
2023/02/04 06:40:34;;;;;;;7.55;3.97;;;;;;;3.57;85.23;100503.22;5009906;28;20045;-82
2023/02/04 06:42:59;;;;;;;4.97;3.60;;;;;;;3.57;84.72;100527.00;4999500;28;20489;-82
2023/02/04 06:45:25;;;;;;;6.60;3.65;;;;;;;2.54;85.29;100507.13;5022026;28;20038;-83
2023/02/04 06:47:50;;;;;;;7.50;4.20;;;;;;;2.88;87.17;100516.69;4999417;28;20025;-82
2023/02/04 06:50:18;;;;;;;6.18;4.00;;;;;;;3.38;85.94;100531.72;5032231;28;20045;-81
2023/02/04 06:52:47;;;;;;;5.45;3.47;;;;;;;3.03;86.43;100520.41;5030671;28;20040;-82
2023/02/04 06:55:14;;;;;;;6.35;4.15;;;;;;;2.98;85.65;100538.50;5026852;28;20037;-82
2023/02/04 06:57:48;;;;;;;11.35;7.70;;;;;;;1.77;87.47;100533.41;5029685;28;20042;-82
2023/02/04 07:00:14;;;;;;;6.88;5.50;;;;;;;1.30;88.49;100543.28;5012160;28;20828;-82
2023/02/04 07:02:41;;;;;;;7.47;4.25;;;;;;;0.96;89.53;100534.34;5028133;28;20129;-83
2023/02/04 07:05:07;;;;;;;7.75;4.15;;;;;;;1.19;90.38;100557.47;4983128;28;20413;-82
2023/02/04 07:07:32;;;;;;;8.65;4.60;;;;;;;1.80;90.47;100564.69;5033122;28;20029;-82
2023/02/04 07:09:58;;;;;;;8.85;5.53;;;;;;;2.15;90.48;100546.25;5013702;28;20045;-81
2023/02/04 07:12:23;;;;;;;6.97;4.97;;;;;;;2.81;88.04;100547.34;5019388;28;20048;-82
2023/02/04 07:14:49;;;;;;;6.22;4.78;;;;;;;2.90;86.92;100551.69;5030667;28;20029;-81
2023/02/04 07:17:14;;;;;;;8.13;4.88;;;;;;;3.02;86.18;100554.84;5035175;28;20034;-82
2023/02/04 07:19:39;;;;;;;7.15;5.53;;;;;;;3.00;85.87;100570.00;5016351;28;20633;-81
2023/02/04 07:22:05;;;;;;;6.78;5.15;;;;;;;3.03;85.87;100574.97;5035646;28;20516;-81
2023/02/04 07:24:30;;;;;;;5.75;4.25;;;;;;;3.10;85.37;100583.06;5003680;28;20068;-81
2023/02/04 07:26:56;;;;;;;7.40;4.18;;;;;;;2.99;85.46;100578.91;5030105;28;20567;-82
2023/02/04 07:29:21;;;;;;;5.95;3.60;;;;;;;3.09;85.25;100584.88;5014114;28;20052;-81
2023/02/04 07:31:47;;;;;;;4.72;3.65;;;;;;;2.94;85.40;100574.09;5028844;28;20033;-81
2023/02/04 07:34:13;;;;;;;4.13;3.42;;;;;;;3.13;85.46;100588.03;5032116;28;20028;-81
2023/02/04 07:36:39;;;;;;;4.50;3.75;;;;;;;3.15;85.40;100602.72;5032604;28;20021;-82
2023/02/04 07:39:04;;;;;;;6.30;4.05;;;;;;;3.18;85.08;100601.56;5027203;28;20567;-83
2023/02/04 07:41:30;;;;;;;6.47;5.25;;;;;;;3.13;84.60;100598.56;5018876;28;20037;-81
2023/02/04 07:43:55;;;;;;;7.47;4.40;;;;;;;3.02;85.00;100599.69;5013364;28;20037;-83
2023/02/04 07:46:20;;;;;;;6.28;4.82;;;;;;;3.12;85.07;100612.75;5017252;28;20053;-83
2023/02/04 07:48:46;;;;;;;8.13;4.30;;;;;;;3.19;85.26;100624.34;5016804;28;20064;-83
2023/02/04 07:51:11;;;;;;;9.18;5.25;;;;;;;3.14;85.24;100619.53;5019248;28;20033;-82
2023/02/04 07:53:36;;;;;;;8.45;5.43;;;;;;;2.95;85.61;100611.81;5003055;28;20114;-82
2023/02/04 07:56:02;;;;;;;6.32;4.75;;;;;;;3.27;84.72;100619.09;5013986;28;20481;-82
2023/02/04 07:58:27;;;;;;;6.88;4.80;;;;;;;2.15;85.82;100620.81;5032189;28;20034;-82
2023/02/04 08:00:53;;;;;;;7.43;5.03;;;;;;;2.28;89.16;100623.06;5030183;28;20502;-82
2023/02/04 08:03:18;;;;;;;6.25;3.60;;;;;;;2.06;87.74;100615.63;5031370;28;20025;-82
2023/02/04 08:05:43;;;;;;;6.32;4.15;;;;;;;1.58;88.51;100613.31;5029583;28;20143;-81
2023/02/04 08:08:09;;;;;;;6.75;4.22;;;;;;;2.28;90.30;100613.34;4997972;28;20073;-82
2023/02/04 08:10:34;;;;;;;9.75;4.88;;;;;;;2.40;88.37;100621.03;4991771;28;20495;-81
2023/02/04 08:12:59;;;;;;;8.98;5.20;;;;;;;2.55;88.45;100640.56;5015593;28;20228;-81
2023/02/04 08:15:25;;;;;;;6.78;4.63;;;;;;;1.36;89.64;100658.44;5027167;28;20033;-81
2023/02/04 08:17:50;;;;;;;8.18;5.43;;;;;;;1.31;91.11;100658.84;5029457;28;20034;-81
2023/02/04 08:20:17;;;;;;;7.68;5.30;;;;;;;1.14;92.02;100659.63;5009705;28;20041;-81
2023/02/04 08:22:42;;;;;;;10.88;5.43;;;;;;;0.71;93.64;100667.22;4991108;28;20057;-82
2023/02/04 08:25:10;;;;;;;11.88;6.68;;;;;;;0.67;94.44;100650.06;5009912;28;20122;-81
2023/02/04 08:27:36;;;;;;;13.75;8.05;;;;;;;0.60;94.64;100643.72;5012671;28;20029;-82
2023/02/04 08:30:01;;;;;;;16.58;7.72;;;;;;;0.61;94.15;100646.19;5019226;28;20064;-82
2023/02/04 08:32:28;;;;;;;9.38;5.97;;;;;;;1.33;95.15;100651.66;5027544;28;20036;-82
2023/02/04 08:34:53;;;;;;;10.82;6.80;;;;;;;1.60;93.20;100647.38;5036265;28;20537;-81
2023/02/04 08:37:18;;;;;;;12.35;6.18;;;;;;;1.19;91.79;100674.97;5021292;28;20045;-82
2023/02/04 08:39:46;;;;;;;11.18;6.20;;;;;;;1.26;92.88;100676.91;5014939;28;20034;-81
2023/02/04 08:42:12;;;;;;;9.88;6.25;;;;;;;1.44;92.35;100677.78;5016068;28;20034;-81
2023/02/04 08:44:37;;;;;;;11.85;6.85;;;;;;;0.62;92.46;100665.41;5030126;28;20058;-82
2023/02/04 08:47:03;;;;;;;13.75;6.78;;;;;;;1.11;93.55;100675.72;4997674;28;20056;-81
2023/02/04 08:49:28;;;;;;;8.68;5.95;;;;;;;0.71;92.45;100675.94;5030413;28;20110;-80
2023/02/04 08:51:53;;;;;;;9.43;6.22;;;;;;;0.57;93.38;100668.47;5028421;28;20065;-80
2023/02/04 08:54:19;;;;;;;19.63;6.45;;;;;;;0.78;93.64;100681.44;5011064;28;20501;-81
2023/02/04 08:56:44;;;;;;;10.50;6.45;;;;;;;1.30;93.74;100675.63;5011799;28;20025;-81
2023/02/04 08:59:10;;;;;;;14.77;6.38;;;;;;;1.30;92.87;100678.25;5023004;28;20033;-81
2023/02/04 09:01:36;;;;;;;10.57;6.00;;;;;;;1.09;93.45;100679.44;4995671;28;20048;-80
2023/02/04 09:04:01;;;;;;;9.15;6.03;;;;;;;0.79;92.17;100688.34;5003441;28;20069;-80
2023/02/04 09:06:27;;;;;;;12.43;5.75;;;;;;;1.24;94.48;100684.09;5008116;28;20091;-81
2023/02/04 09:08:52;;;;;;;9.82;6.65;;;;;;;1.25;92.46;100685.75;5006617;28;20533;-81
2023/02/04 09:11:17;;;;;;;11.52;6.40;;;;;;;0.91;92.54;100684.59;5008106;28;20080;-82
2023/02/04 09:13:43;;;;;;;8.38;6.13;;;;;;;1.74;92.45;100691.63;5022846;28;20037;-81
2023/02/04 09:16:09;;;;;;;8.55;5.60;;;;;;;2.20;92.01;100673.03;5005680;28;20434;-83
2023/02/04 09:18:35;;;;;;;10.60;7.10;;;;;;;1.98;89.57;100697.16;5024767;28;20025;-81
2023/02/04 09:21:00;;;;;;;10.52;6.72;;;;;;;1.73;90.98;100703.13;5007520;28;20128;-81
2023/02/04 09:23:26;;;;;;;7.78;5.63;;;;;;;0.93;91.33;100687.91;4994634;28;20064;-80
2023/02/04 09:25:51;;;;;;;8.98;6.38;;;;;;;1.22;92.25;100708.88;5006880;28;20030;-81
2023/02/04 09:28:16;;;;;;;9.30;6.45;;;;;;;1.33;90.79;100700.81;5010247;28;20037;-81
2023/02/04 09:30:44;;;;;;;7.93;4.85;;;;;;;1.41;91.55;100706.19;5021933;28;20095;-81
2023/02/04 09:33:11;;;;;;;8.15;5.28;;;;;;;1.03;89.26;100714.16;5027910;28;20030;-80
2023/02/04 09:35:37;;;;;;;10.15;5.70;;;;;;;1.14;90.18;100716.63;5014566;28;20079;-80
2023/02/04 09:38:03;;;;;;;8.73;5.57;;;;;;;0.89;90.46;100702.31;5023112;28;20026;-81
2023/02/04 09:40:33;;;;;;;8.65;5.10;;;;;;;1.34;91.21;100716.44;5029722;28;20087;-80
2023/02/04 09:43:00;;;;;;;8.55;6.20;;;;;;;1.70;91.09;100719.22;5031810;28;20026;-81
2023/02/04 09:45:28;;;;;;;11.10;5.50;;;;;;;1.72;90.58;100727.78;5029693;28;20338;-81
2023/02/04 09:47:57;;;;;;;11.82;6.15;;;;;;;2.20;90.88;100734.47;5014433;28;20094;-81
2023/02/04 09:50:25;;;;;;;7.80;5.85;;;;;;;2.06;91.63;100723.59;5009514;28;20069;-80
2023/02/04 09:52:54;;;;;;;11.85;6.03;;;;;;;2.68;89.58;100717.44;5027938;28;20033;-80
2023/02/04 09:55:24;;;;;;;11.55;5.53;;;;;;;2.67;89.92;100729.78;5024175;28;20045;-81
2023/02/04 09:57:49;;;;;;;8.75;4.45;;;;;;;3.12;88.90;100742.03;5024067;28;20127;-82
2023/02/04 10:00:18;;;;;;;7.95;2.95;;;;;;;2.70;86.68;100729.50;5005444;28;20038;-81
2023/02/04 10:02:43;;;;;;;4.80;4.10;;;;;;;2.93;86.98;100740.38;5014279;28;20469;-82
2023/02/04 10:05:18;;;;;;;4.60;3.47;;;;;;;2.71;85.15;100731.13;5012998;28;20036;-81
2023/02/04 10:07:45;;;;;;;4.85;3.42;;;;;;;3.35;87.46;100737.88;5009612;28;20544;-81
2023/02/04 10:10:20;;;;;;;9.13;4.00;;;;;;;3.32;87.12;100748.75;5008688;28;20025;-81
2023/02/04 10:12:47;;;;;;;9.20;3.58;;;;;;;3.62;86.93;100753.56;5007646;28;20031;-80
2023/02/04 10:15:14;;;;;;;4.97;3.50;;;;;;;3.71;86.50;100760.53;5013545;28;20178;-81
2023/02/04 10:17:41;;;;;;;6.90;3.33;;;;;;;3.75;86.14;100754.78;5027026;28;20028;-81
2023/02/04 10:20:20;;;;;;;3.60;2.70;;;;;;;3.64;85.97;100762.13;5012908;28;20049;-81
2023/02/04 10:22:46;;;;;;;3.97;2.70;;;;;;;3.49;86.24;100758.44;4997265;28;20025;-80
2023/02/04 10:25:17;;;;;;;5.05;2.58;;;;;;;3.68;86.11;100763.47;5033958;28;20125;-80
2023/02/04 10:27:54;;;;;;;4.70;2.40;;;;;;;3.32;83.66;100748.75;5030647;28;20029;-81
2023/02/04 10:30:39;;;;;;;4.57;2.30;;;;;;;3.61;85.35;100762.44;5030502;28;20122;-81
2023/02/04 10:33:25;;;;;;;5.93;2.73;;;;;;;3.74;82.10;100752.28;5032123;28;20060;-80
2023/02/04 10:35:54;;;;;;;12.88;3.10;;;;;;;3.96;82.53;100756.16;5010196;28;20378;-81
2023/02/04 10:38:19;;;;;;;3.22;2.40;;;;;;;3.93;82.68;100770.53;5024690;28;20033;-81
2023/02/04 10:40:46;;;;;;;2.60;2.40;;;;;;;3.87;82.64;100768.50;5028453;28;20036;-81
2023/02/04 10:43:21;;;;;;;3.78;2.35;;;;;;;3.72;81.60;100783.28;4998800;28;20580;-80
2023/02/04 10:45:54;;;;;;;3.92;2.28;;;;;;;3.76;81.18;100779.34;5022908;28;20068;-79
2023/02/04 10:48:20;;;;;;;3.53;2.08;;;;;;;3.71;80.47;100773.75;5021168;28;20095;-80
2023/02/04 10:50:47;;;;;;;4.68;2.28;;;;;;;3.74;79.90;100787.44;5010932;28;20389;-80
2023/02/04 10:56:01;;;;;;;5.28;2.70;;;;;;;3.85;80.66;100793.41;5031117;28;20568;-80
2023/02/04 10:58:29;;;;;;;2.33;2.13;;;;;;;3.59;79.03;100807.50;5031417;28;20049;-81
2023/02/04 11:00:54;;;;;;;4.55;2.58;;;;;;;3.25;78.25;100806.59;5028642;28;20029;-81
2023/02/04 11:03:25;;;;;;;2.80;2.50;;;;;;;3.40;78.75;100801.59;5025342;28;20045;-81
2023/02/04 11:05:51;;;;;;;3.05;2.60;;;;;;;3.27;77.72;100799.34;5020562;28;20028;-80
2023/02/04 11:08:18;;;;;;;3.33;2.15;;;;;;;3.53;78.50;100809.91;5029523;28;20037;-81
2023/02/04 11:10:44;;;;;;;2.72;2.50;;;;;;;3.78;79.95;100806.44;5031306;28;20041;-80
2023/02/04 11:13:22;;;;;;;3.80;2.45;;;;;;;3.69;79.16;100802.91;5007359;28;20041;-81
2023/02/04 11:15:53;;;;;;;7.07;2.38;;;;;;;3.76;78.86;100811.88;5011470;28;20042;-81
2023/02/04 11:18:19;;;;;;;3.40;2.45;;;;;;;3.74;78.73;100808.56;5018697;28;20067;-82
2023/02/04 11:20:45;;;;;;;5.78;2.85;;;;;;;3.78;79.11;100806.44;5030931;28;20029;-81
2023/02/04 11:23:31;;;;;;;5.53;3.25;;;;;;;3.81;78.72;100803.47;5030327;28;20662;-82
2023/02/04 11:26:18;;;;;;;4.38;3.00;;;;;;;3.96;79.51;100815.13;5026744;28;20030;-81
2023/02/04 11:29:09;;;;;;;;;;;;;;;4.00;79.20;100819.09;5023277;28;20036;-81
2023/02/04 11:31:40;;;;;;;2.70;2.50;;;;;;;3.93;79.14;100815.44;5030591;28;19917;-81